Time;durP1;ratioP1;P1;durP2;ratioP2;P2;SDS_P1;SDS_P2;PMS_P1;PMS_P2;Temp;Humidity;BMP_temperature;BMP_pressure;BME280_temperature;BME280_humidity;BME280_pressure;Samples;Min_cycle;Max_cycle;Signal;HPM_P1;HPM_P2
2023/04/01 00:00:58;;;;;;;;;0.00;0.00;;;;;;;;5073436;28;46293;-55
2023/04/01 00:03:24;;;;;;;;;0.00;0.00;;;;;;;;5072980;27;45496;-57
2023/04/01 00:05:49;;;;;;;;;0.00;0.00;;;;;;;;5066602;27;45515;-56
2023/04/01 00:08:14;;;;;;;;;0.33;0.33;;;;;;;;5070176;27;45430;-57
2023/04/01 00:10:40;;;;;;;;;0.00;0.00;;;;;;;;5071868;28;45477;-57
2023/04/01 00:13:05;;;;;;;;;0.00;0.00;;;;;;;;5066621;27;45489;-55
2023/04/01 00:15:30;;;;;;;;;0.67;0.67;;;;;;;;5063542;28;45469;-56
2023/04/01 00:17:56;;;;;;;;;2.00;0.67;;;;;;;;5073742;27;45408;-57
2023/04/01 00:20:21;;;;;;;;;1.00;0.00;;;;;;;;5071833;28;45651;-57
2023/04/01 00:22:46;;;;;;;;;1.00;0.00;;;;;;;;5073749;27;45453;-56
2023/04/01 00:25:12;;;;;;;;;0.00;0.00;;;;;;;;5068385;27;45580;-56
2023/04/01 00:27:37;;;;;;;;;1.00;1.00;;;;;;;;5073685;27;45484;-57
2023/04/01 00:30:03;;;;;;;;;0.00;0.00;;;;;;;;5078079;27;45531;-56
2023/04/01 00:32:30;;;;;;;;;4.00;1.33;;;;;;;;5072470;28;45485;-56
2023/04/01 00:34:55;;;;;;;;;0.33;0.00;;;;;;;;5072649;27;45524;-52
2023/04/01 00:37:20;;;;;;;;;0.67;0.00;;;;;;;;5072416;27;45707;-57
2023/04/01 00:39:46;;;;;;;;;0.00;0.00;;;;;;;;5080566;27;45371;-53
2023/04/01 00:42:12;;;;;;;;;0.00;0.00;;;;;;;;5077936;27;45485;-57
2023/04/01 00:44:37;;;;;;;;;0.67;0.67;;;;;;;;5074495;27;46559;-55
2023/04/01 00:47:03;;;;;;;;;1.00;1.00;;;;;;;;5070724;27;45557;-56
2023/04/01 00:49:47;;;;;;;;;1.00;0.00;;;;;;;;5079227;27;45499;-56
2023/04/01 00:52:15;;;;;;;;;0.00;0.00;;;;;;;;5077315;27;45551;-57
2023/04/01 00:54:42;;;;;;;;;1.00;0.00;;;;;;;;5077714;27;46804;-56
2023/04/01 00:57:23;;;;;;;;;0.00;0.00;;;;;;;;5078424;27;45584;-55
2023/04/01 00:59:50;;;;;;;;;1.33;0.00;;;;;;;;5077806;27;45505;-56
2023/04/01 01:02:16;;;;;;;;;0.00;0.00;;;;;;;;5076754;27;45608;-58
2023/04/01 01:04:41;;;;;;;;;3.00;1.00;;;;;;;;5078355;27;46260;-56
2023/04/01 01:07:16;;;;;;;;;1.00;0.00;;;;;;;;5075104;27;45588;-57
2023/04/01 01:09:53;;;;;;;;;0.00;0.00;;;;;;;;5079896;27;45495;-58
2023/04/01 01:12:20;;;;;;;;;1.00;0.00;;;;;;;;5078127;27;45483;-58
2023/04/01 01:14:52;;;;;;;;;1.67;0.67;;;;;;;;5079125;27;46744;-57
2023/04/01 01:17:38;;;;;;;;;0.00;0.00;;;;;;;;5075613;27;45425;-55
2023/04/01 01:20:12;;;;;;;;;1.00;0.00;;;;;;;;5066188;28;45511;-55
2023/04/01 01:22:58;;;;;;;;;1.00;1.00;;;;;;;;5066178;28;45668;-55
2023/04/01 01:25:26;;;;;;;;;1.67;1.00;;;;;;;;5060077;28;46238;-58
2023/04/01 01:28:05;;;;;;;;;0.00;0.00;;;;;;;;5074203;28;45542;-56
2023/04/01 01:30:36;;;;;;;;;1.00;0.00;;;;;;;;5067104;27;45523;-56
2023/04/01 01:33:09;;;;;;;;;0.00;0.00;;;;;;;;5065730;27;45698;-56
2023/04/01 01:35:40;;;;;;;;;1.00;0.00;;;;;;;;5074678;27;45540;-56
2023/04/01 01:38:08;;;;;;;;;1.00;0.67;;;;;;;;5067666;27;45571;-58
2023/04/01 01:40:34;;;;;;;;;2.00;1.00;;;;;;;;5065044;27;45601;-57
2023/04/01 01:43:03;;;;;;;;;1.67;0.00;;;;;;;;5077665;27;45386;-55
2023/04/01 01:45:30;;;;;;;;;1.00;0.00;;;;;;;;5075837;27;46227;-58
2023/04/01 01:47:56;;;;;;;;;2.00;1.00;;;;;;;;5072843;27;45501;-54
2023/04/01 01:50:22;;;;;;;;;0.00;0.00;;;;;;;;5075416;27;45540;-53
2023/04/01 01:52:47;;;;;;;;;0.00;0.00;;;;;;;;5067774;27;45614;-56
2023/04/01 01:55:41;;;;;;;;;0.00;0.00;;;;;;;;5074003;27;45486;-55
2023/04/01 01:58:20;;;;;;;;;0.33;0.00;;;;;;;;5052934;27;45489;-55
2023/04/01 02:00:48;;;;;;;;;0.67;0.00;;;;;;;;5070620;27;45468;-55
2023/04/01 02:03:14;;;;;;;;;2.00;1.00;;;;;;;;5057749;27;45520;-57
2023/04/01 02:05:40;;;;;;;;;0.00;0.00;;;;;;;;5079135;27;46197;-55
2023/04/01 02:08:16;;;;;;;;;1.33;0.33;;;;;;;;5075669;27;45489;-56
2023/04/01 02:10:44;;;;;;;;;0.00;0.00;;;;;;;;5070847;27;45493;-58
2023/04/01 02:13:15;;;;;;;;;1.00;1.00;;;;;;;;5056017;28;45468;-58
2023/04/01 02:15:44;;;;;;;;;0.00;0.00;;;;;;;;5069867;27;46305;-54
2023/04/01 02:18:11;;;;;;;;;0.00;0.00;;;;;;;;5075357;27;45863;-57
2023/04/01 02:20:37;;;;;;;;;0.00;0.00;;;;;;;;5070239;27;45537;-55
2023/04/01 02:23:03;;;;;;;;;0.00;0.00;;;;;;;;5074158;27;45625;-56
2023/04/01 02:25:30;;;;;;;;;1.00;1.00;;;;;;;;5074955;27;45623;-58
2023/04/01 02:27:57;;;;;;;;;0.00;0.00;;;;;;;;5075470;27;45504;-55
2023/04/01 02:30:23;;;;;;;;;0.00;0.00;;;;;;;;5069852;27;46229;-57
2023/04/01 02:32:49;;;;;;;;;0.00;0.00;;;;;;;;5060405;28;45610;-54
2023/04/01 02:35:15;;;;;;;;;0.00;0.00;;;;;;;;5074401;27;45654;-57
2023/04/01 02:37:42;;;;;;;;;0.00;0.00;;;;;;;;5074447;27;45569;-57
2023/04/01 02:40:08;;;;;;;;;1.00;1.00;;;;;;;;5077598;27;45742;-55
2023/04/01 02:42:35;;;;;;;;;0.00;0.00;;;;;;;;5074086;27;45445;-56
2023/04/01 02:45:00;;;;;;;;;0.00;0.00;;;;;;;;5084045;27;45592;-56
2023/04/01 02:47:25;;;;;;;;;1.00;1.00;;;;;;;;5074335;27;45386;-53
2023/04/01 02:49:50;;;;;;;;;1.33;0.00;;;;;;;;5074869;27;45488;-55
2023/04/01 02:52:16;;;;;;;;;0.00;0.00;;;;;;;;5073011;27;45664;-58
2023/04/01 02:54:41;;;;;;;;;0.00;0.00;;;;;;;;5072420;27;45864;-58
2023/04/01 02:57:06;;;;;;;;;0.00;0.00;;;;;;;;5073841;27;45431;-58
2023/04/01 02:59:31;;;;;;;;;1.33;0.00;;;;;;;;5083496;27;45337;-55
2023/04/01 03:01:56;;;;;;;;;0.00;0.00;;;;;;;;5070773;27;45725;-56
2023/04/01 03:04:22;;;;;;;;;1.67;0.00;;;;;;;;5073356;28;45841;-55
2023/04/01 03:06:47;;;;;;;;;1.00;0.00;;;;;;;;5072638;27;45818;-55
2023/04/01 03:09:12;;;;;;;;;0.00;0.00;;;;;;;;5074110;27;45495;-57
2023/04/01 03:11:37;;;;;;;;;1.00;0.00;;;;;;;;5071952;27;45463;-56
2023/04/01 03:14:02;;;;;;;;;0.00;0.00;;;;;;;;5073742;27;45646;-58
2023/04/01 03:16:27;;;;;;;;;1.33;1.33;;;;;;;;5072293;28;45559;-57
2023/04/01 03:18:55;;;;;;;;;0.00;0.00;;;;;;;;5074906;27;45472;-58
2023/04/01 03:21:21;;;;;;;;;0.00;0.00;;;;;;;;5066303;27;45605;-56
2023/04/01 03:23:46;;;;;;;;;1.00;0.00;;;;;;;;5071940;27;46233;-55
2023/04/01 03:26:13;;;;;;;;;0.00;0.00;;;;;;;;5074355;27;45541;-56
2023/04/01 03:28:38;;;;;;;;;0.33;0.00;;;;;;;;5072110;27;45531;-56
2023/04/01 03:31:03;;;;;;;;;1.33;0.33;;;;;;;;5077265;27;45565;-56
2023/04/01 03:33:29;;;;;;;;;1.00;1.00;;;;;;;;5070635;28;45507;-57
2023/04/01 03:35:54;;;;;;;;;0.00;0.00;;;;;;;;5076848;27;45537;-58
2023/04/01 03:38:19;;;;;;;;;0.33;0.33;;;;;;;;5074430;27;45625;-57
2023/04/01 03:40:45;;;;;;;;;1.00;0.00;;;;;;;;5072247;27;45782;-57
2023/04/01 03:43:10;;;;;;;;;0.00;0.00;;;;;;;;5072032;27;45415;-58
2023/04/01 03:45:36;;;;;;;;;2.00;0.00;;;;;;;;5067034;27;45605;-56
2023/04/01 03:48:01;;;;;;;;;0.33;0.33;;;;;;;;5069214;28;45446;-57
2023/04/01 03:50:26;;;;;;;;;3.00;0.00;;;;;;;;5073620;27;45677;-55
2023/04/01 03:52:51;;;;;;;;;1.00;1.00;;;;;;;;5070926;27;46562;-54
2023/04/01 03:55:17;;;;;;;;;0.00;0.00;;;;;;;;5073049;27;45509;-52
2023/04/01 03:57:43;;;;;;;;;1.00;0.00;;;;;;;;5064912;27;45482;-56
2023/04/01 04:00:08;;;;;;;;;1.33;0.00;;;;;;;;5073757;27;45508;-53
2023/04/01 04:02:34;;;;;;;;;0.67;0.00;;;;;;;;5070760;27;45522;-55
2023/04/01 04:04:59;;;;;;;;;0.67;0.33;;;;;;;;5074266;27;46077;-56
2023/04/01 04:07:24;;;;;;;;;0.67;0.67;;;;;;;;5073164;28;45575;-57
2023/04/01 04:09:50;;;;;;;;;0.00;0.00;;;;;;;;5073910;27;45461;-57
2023/04/01 04:12:15;;;;;;;;;0.00;0.00;;;;;;;;5060030;28;45935;-58
2023/04/01 04:14:40;;;;;;;;;2.00;0.00;;;;;;;;5079023;27;45474;-56
2023/04/01 04:17:05;;;;;;;;;1.00;0.67;;;;;;;;5077932;27;45406;-56
2023/04/01 04:19:33;;;;;;;;;0.67;0.00;;;;;;;;5072933;27;45530;-55
2023/04/01 04:22:01;;;;;;;;;0.00;0.00;;;;;;;;5060358;28;46095;-57
2023/04/01 04:24:27;;;;;;;;;0.33;0.33;;;;;;;;5068643;27;46088;-52
2023/04/01 04:26:52;;;;;;;;;1.00;1.00;;;;;;;;5072153;27;46165;-57
2023/04/01 04:29:17;;;;;;;;;0.00;0.00;;;;;;;;5071168;27;45515;-57
2023/04/01 04:31:43;;;;;;;;;2.00;2.00;;;;;;;;5058997;28;46282;-56
2023/04/01 04:34:08;;;;;;;;;0.00;0.00;;;;;;;;5073130;27;45611;-56
2023/04/01 04:36:33;;;;;;;;;2.33;0.00;;;;;;;;5073898;27;45460;-57
2023/04/01 04:39:01;;;;;;;;;0.00;0.00;;;;;;;;5073514;27;45389;-58
2023/04/01 04:41:26;;;;;;;;;2.00;0.00;;;;;;;;5072320;27;45429;-57
2023/04/01 04:43:53;;;;;;;;;1.00;0.00;;;;;;;;5069059;27;45473;-53
2023/04/01 04:46:19;;;;;;;;;0.00;0.00;;;;;;;;5075185;27;45704;-56
2023/04/01 04:48:45;;;;;;;;;1.00;0.00;;;;;;;;5073628;28;45528;-58
2023/04/01 04:51:12;;;;;;;;;3.00;0.00;;;;;;;;5066857;27;45481;-55
2023/04/01 04:53:38;;;;;;;;;0.00;0.00;;;;;;;;5071211;27;45761;-56
2023/04/01 04:56:05;;;;;;;;;1.00;1.00;;;;;;;;5070080;27;45472;-57
2023/04/01 04:58:30;;;;;;;;;0.00;0.00;;;;;;;;5071475;28;45641;-56
2023/04/01 05:00:56;;;;;;;;;1.00;1.00;;;;;;;;5075943;27;45612;-55
2023/04/01 05:03:21;;;;;;;;;2.00;0.00;;;;;;;;5065509;27;45478;-55
2023/04/01 05:05:53;;;;;;;;;0.00;0.00;;;;;;;;5081080;27;45451;-56
2023/04/01 05:08:18;;;;;;;;;0.00;0.00;;;;;;;;5073413;27;45506;-56
2023/04/01 05:10:43;;;;;;;;;0.33;0.33;;;;;;;;5070443;27;45552;-53
2023/04/01 05:13:09;;;;;;;;;0.67;0.00;;;;;;;;5071778;27;45464;-51
2023/04/01 05:15:34;;;;;;;;;0.67;0.00;;;;;;;;5079263;27;45602;-55
2023/04/01 05:18:00;;;;;;;;;1.00;0.00;;;;;;;;5072478;27;45613;-57
2023/04/01 05:20:25;;;;;;;;;3.00;0.67;;;;;;;;5065106;27;45458;-54
2023/04/01 05:22:55;;;;;;;;;0.00;0.00;;;;;;;;5062691;27;45613;-55
2023/04/01 05:25:20;;;;;;;;;0.00;0.00;;;;;;;;5080633;27;45446;-56
2023/04/01 05:27:45;;;;;;;;;0.00;0.00;;;;;;;;5069662;27;46003;-56
2023/04/01 05:30:10;;;;;;;;;1.00;1.00;;;;;;;;5073845;27;46183;-57
2023/04/01 05:32:36;;;;;;;;;1.33;1.33;;;;;;;;5076075;27;45496;-57
2023/04/01 05:35:01;;;;;;;;;0.00;0.00;;;;;;;;5074404;27;45493;-54
2023/04/01 05:37:26;;;;;;;;;1.00;1.00;;;;;;;;5075571;28;45470;-56
2023/04/01 05:39:51;;;;;;;;;0.00;0.00;;;;;;;;5075819;27;45391;-57
2023/04/01 05:42:16;;;;;;;;;0.67;0.00;;;;;;;;5072006;27;45484;-56
2023/04/01 05:44:42;;;;;;;;;1.00;1.00;;;;;;;;5070725;27;45477;-58
2023/04/01 05:47:07;;;;;;;;;1.00;1.00;;;;;;;;5088622;27;45618;-57
2023/04/01 05:49:32;;;;;;;;;1.00;1.00;;;;;;;;5075501;27;46325;-57
2023/04/01 05:51:58;;;;;;;;;0.00;0.00;;;;;;;;5089353;27;45507;-57
2023/04/01 05:54:23;;;;;;;;;0.00;0.00;;;;;;;;5064783;27;45458;-57
2023/04/01 05:56:48;;;;;;;;;0.00;0.00;;;;;;;;5059156;27;45516;-57
2023/04/01 05:59:14;;;;;;;;;0.67;0.67;;;;;;;;5075266;27;45685;-56
2023/04/01 06:01:39;;;;;;;;;0.00;0.00;;;;;;;;5074681;27;45554;-57
2023/04/01 06:04:04;;;;;;;;;2.00;0.00;;;;;;;;5061941;27;45384;-56
2023/04/01 06:06:31;;;;;;;;;0.00;0.00;;;;;;;;5081539;27;45552;-55
2023/04/01 06:08:58;;;;;;;;;1.00;1.00;;;;;;;;5075034;27;46001;-55
2023/04/01 06:11:50;;;;;;;;;0.00;0.00;;;;;;;;5074195;27;45537;-55
2023/04/01 06:14:24;;;;;;;;;0.00;0.00;;;;;;;;5073573;27;45436;-57
2023/04/01 06:17:08;;;;;;;;;0.00;0.00;;;;;;;;5075655;27;45480;-55
2023/04/01 06:19:41;;;;;;;;;3.00;1.00;;;;;;;;5074309;27;46092;-55
2023/04/01 06:22:21;;;;;;;;;2.00;0.00;;;;;;;;5076721;27;45547;-55
2023/04/01 06:25:07;;;;;;;;;1.00;1.00;;;;;;;;5074849;27;45571;-54
2023/04/01 06:27:32;;;;;;;;;0.00;0.00;;;;;;;;5075464;28;45482;-55
2023/04/01 06:29:57;;;;;;;;;2.00;0.00;;;;;;;;5074508;27;46089;-58
2023/04/01 06:32:41;;;;;;;;;1.75;0.75;;;;;;;;5069603;28;45590;-57
2023/04/01 06:35:21;;;;;;;;;0.00;0.00;;;;;;;;5061645;27;45473;-56
2023/04/01 06:37:55;;;;;;;;;0.33;0.00;;;;;;;;5074207;28;45544;-57
2023/04/01 06:40:35;;;;;;;;;0.00;0.00;;;;;;;;5075216;27;46210;-55
2023/04/01 06:43:07;;;;;;;;;1.00;0.00;;;;;;;;5063668;27;45624;-58
2023/04/01 06:45:55;;;;;;;;;1.00;0.00;;;;;;;;5075626;27;45584;-56
2023/04/01 06:48:39;;;;;;;;;0.33;0.00;;;;;;;;5073246;27;45579;-55
2023/04/01 06:51:14;;;;;;;;;0.33;0.00;;;;;;;;5066203;27;46341;-55
2023/04/01 06:53:46;;;;;;;;;0.33;0.33;;;;;;;;5073675;28;45526;-58
2023/04/01 06:56:14;;;;;;;;;2.00;1.00;;;;;;;;5071441;27;45544;-55
2023/04/01 06:58:46;;;;;;;;;0.00;0.00;;;;;;;;5064980;27;45634;-57
2023/04/01 07:01:17;;;;;;;;;0.00;0.00;;;;;;;;5071080;27;45603;-55
2023/04/01 07:03:47;;;;;;;;;1.00;0.00;;;;;;;;5069303;28;45505;-58
2023/04/01 07:06:17;;;;;;;;;0.00;0.00;;;;;;;;5076606;27;45637;-56
2023/04/01 07:08:44;;;;;;;;;1.00;1.00;;;;;;;;5065772;27;45490;-59
2023/04/01 07:11:11;;;;;;;;;0.00;0.00;;;;;;;;5072835;27;45457;-59
2023/04/01 07:13:41;;;;;;;;;2.00;1.00;;;;;;;;5068507;27;45437;-59
2023/04/01 07:16:27;;;;;;;;;1.33;0.00;;;;;;;;5070931;27;45571;-59
2023/04/01 07:19:05;;;;;;;;;0.00;0.00;;;;;;;;5074471;28;45560;-59
2023/04/01 07:21:35;;;;;;;;;0.00;0.00;;;;;;;;5078520;27;45974;-59
2023/04/01 07:24:04;;;;;;;;;0.00;0.00;;;;;;;;5073215;28;45484;-59
2023/04/01 07:26:29;;;;;;;;;0.00;0.00;;;;;;;;5065117;27;45512;-59
2023/04/01 07:28:54;;;;;;;;;0.00;0.00;;;;;;;;5073231;27;45480;-59
2023/04/01 07:31:30;;;;;;;;;0.00;0.00;;;;;;;;5073518;27;45618;-59
2023/04/01 07:34:08;;;;;;;;;0.00;0.00;;;;;;;;5073354;28;45984;-59
2023/04/01 07:36:44;;;;;;;;;0.00;0.00;;;;;;;;5073855;27;45502;-59
2023/04/01 07:39:16;;;;;;;;;0.00;0.00;;;;;;;;5068152;27;45590;-59
2023/04/01 07:42:00;;;;;;;;;0.00;0.00;;;;;;;;5072737;27;46303;-59
2023/04/01 07:44:31;;;;;;;;;3.67;0.67;;;;;;;;5058065;28;45618;-59
2023/04/01 07:47:06;;;;;;;;;2.00;1.00;;;;;;;;5064741;27;45519;-59
2023/04/01 07:49:37;;;;;;;;;0.00;0.00;;;;;;;;5065764;28;45539;-59
2023/04/01 07:52:06;;;;;;;;;2.33;0.00;;;;;;;;5070120;27;46143;-60
2023/04/01 07:54:46;;;;;;;;;0.00;0.00;;;;;;;;5072472;27;45551;-59
2023/04/01 07:57:29;;;;;;;;;0.00;0.00;;;;;;;;5066860;27;45499;-59
2023/04/01 07:59:57;;;;;;;;;0.00;0.00;;;;;;;;5067757;27;45613;-59
2023/04/01 08:02:26;;;;;;;;;1.33;1.00;;;;;;;;5071769;27;46154;-58
2023/04/01 08:04:54;;;;;;;;;0.33;0.33;;;;;;;;5071968;28;45553;-58
2023/04/01 08:07:39;;;;;;;;;0.00;0.00;;;;;;;;5067516;27;45829;-58
2023/04/01 08:10:11;;;;;;;;;1.00;0.00;;;;;;;;5070953;27;45595;-58
2023/04/01 08:12:45;;;;;;;;;2.00;0.00;;;;;;;;5073830;27;46120;-58
2023/04/01 08:15:22;;;;;;;;;0.00;0.00;;;;;;;;5072833;27;45471;-58
2023/04/01 08:17:50;;;;;;;;;0.00;0.00;;;;;;;;5073840;27;45468;-58
2023/04/01 08:20:34;;;;;;;;;1.00;1.00;;;;;;;;5073701;27;45512;-58
2023/04/01 08:23:18;;;;;;;;;1.33;0.00;;;;;;;;5073293;27;46087;-58
2023/04/01 08:25:48;;;;;;;;;0.00;0.00;;;;;;;;5073034;27;45535;-58
2023/04/01 08:28:17;;;;;;;;;0.00;0.00;;;;;;;;5073456;27;45795;-58
2023/04/01 08:30:48;;;;;;;;;0.00;0.00;;;;;;;;5073063;27;45480;-58
2023/04/01 08:33:17;;;;;;;;;2.00;0.00;;;;;;;;5073759;27;46281;-58
2023/04/01 08:35:42;;;;;;;;;0.00;0.00;;;;;;;;5072942;27;45576;-58
2023/04/01 08:38:17;;;;;;;;;1.00;0.00;;;;;;;;5073689;28;45456;-58
2023/04/01 08:40:45;;;;;;;;;0.00;0.00;;;;;;;;5073875;27;45571;-58
2023/04/01 08:43:22;;;;;;;;;0.33;0.00;;;;;;;;5073375;27;46341;-58
2023/04/01 08:46:06;;;;;;;;;0.00;0.00;;;;;;;;5072790;27;45543;-58
2023/04/01 08:48:44;;;;;;;;;1.00;0.00;;;;;;;;5066973;28;45563;-58
2023/04/01 08:51:27;;;;;;;;;0.00;0.00;;;;;;;;5073629;27;45421;-58
2023/04/01 08:54:21;;;;;;;;;1.33;0.00;;;;;;;;5066784;28;46401;-58
2023/04/01 08:56:50;;;;;;;;;1.33;0.00;;;;;;;;5025976;28;45625;-58
2023/04/01 08:59:29;;;;;;;;;0.00;0.00;;;;;;;;5067996;27;45496;-58
2023/04/01 09:02:00;;;;;;;;;0.00;0.00;;;;;;;;5077066;27;45468;-58
2023/04/01 09:04:53;;;;;;;;;0.00;0.00;;;;;;;;5076831;27;46311;-58
2023/04/01 09:07:21;;;;;;;;;1.00;1.00;;;;;;;;5061692;27;45928;-58
2023/04/01 09:09:55;;;;;;;;;4.00;4.00;;;;;;;;5058247;27;45783;-58
2023/04/01 09:12:21;;;;;;;;;0.33;0.33;;;;;;;;5076731;27;45694;-58
2023/04/01 09:15:08;;;;;;;;;0.00;0.00;;;;;;;;5074044;27;45576;-58
2023/04/01 09:18:06;;;;;;;;;1.67;0.00;;;;;;;;5063964;28;45502;-58
2023/04/01 09:20:46;;;;;;;;;0.67;0.67;;;;;;;;5065186;27;45423;-57
2023/04/01 09:23:29;;;;;;;;;1.00;1.00;;;;;;;;5071619;27;45483;-58
2023/04/01 09:26:08;;;;;;;;;0.67;0.67;;;;;;;;5060814;27;46105;-63
2023/04/01 09:28:46;;;;;;;;;0.67;0.00;;;;;;;;5062345;27;45489;-64
2023/04/01 09:31:25;;;;;;;;;0.00;0.00;;;;;;;;5075531;27;45529;-62
2023/04/01 09:34:09;;;;;;;;;1.00;0.00;;;;;;;;5076023;27;45573;-62
2023/04/01 09:36:42;;;;;;;;;0.00;0.00;;;;;;;;5061916;27;45488;-54
2023/04/01 09:39:27;;;;;;;;;0.00;0.00;;;;;;;;5070126;27;45519;-60
2023/04/01 09:41:55;;;;;;;;;0.33;0.00;;;;;;;;5073611;27;45571;-60
2023/04/01 09:44:29;;;;;;;;;0.00;0.00;;;;;;;;5071463;27;45593;-61
2023/04/01 09:47:16;;;;;;;;;1.00;0.00;;;;;;;;5073426;27;45771;-60
2023/04/01 09:50:12;;;;;;;;;0.67;0.00;;;;;;;;5076254;27;45587;-62
2023/04/01 09:52:47;;;;;;;;;0.00;0.00;;;;;;;;5071021;27;45490;-63
2023/04/01 09:55:19;;;;;;;;;1.33;1.00;;;;;;;;5075044;27;45511;-62
2023/04/01 09:57:47;;;;;;;;;1.67;0.67;;;;;;;;5074818;27;46005;-63
2023/04/01 10:00:31;;;;;;;;;0.33;0.33;;;;;;;;5075398;27;45664;-65
2023/04/01 10:02:59;;;;;;;;;0.00;0.00;;;;;;;;5063512;27;45514;-62
2023/04/01 10:05:36;;;;;;;;;3.00;2.00;;;;;;;;5076308;27;45568;-62
2023/04/01 10:08:10;;;;;;;;;1.00;0.00;;;;;;;;5068813;28;46058;-63
2023/04/01 10:10:46;;;;;;;;;4.00;4.00;;;;;;;;5075015;27;45455;-63
2023/04/01 10:13:12;;;;;;;;;2.00;2.00;;;;;;;;5075738;28;45535;-63
2023/04/01 10:15:55;;;;;;;;;0.00;0.00;;;;;;;;5075995;27;45560;-63
2023/04/01 10:18:39;;;;;;;;;2.00;2.00;;;;;;;;5067152;27;45461;-63
2023/04/01 10:21:17;;;;;;;;;0.00;0.00;;;;;;;;5074136;27;45519;-62
2023/04/01 10:24:01;;;;;;;;;1.00;1.00;;;;;;;;5066607;28;45634;-63
2023/04/01 10:26:58;;;;;;;;;0.00;0.00;;;;;;;;5070011;27;45458;-62
2023/04/01 10:29:42;;;;;;;;;0.00;0.00;;;;;;;;5075716;27;45536;-63
2023/04/01 10:32:19;;;;;;;;;0.00;0.00;;;;;;;;5075436;27;45532;-62
2023/04/01 10:35:03;;;;;;;;;0.00;0.00;;;;;;;;5075790;27;45504;-62
2023/04/01 10:37:43;;;;;;;;;0.00;0.00;;;;;;;;5070624;27;46335;-62
2023/04/01 10:40:22;;;;;;;;;0.00;0.00;;;;;;;;5068249;27;45437;-64
2023/04/01 10:42:58;;;;;;;;;1.00;1.00;;;;;;;;5058116;28;45450;-63
2023/04/01 10:45:42;;;;;;;;;0.00;0.00;;;;;;;;5063788;28;45484;-63
2023/04/01 10:48:26;;;;;;;;;0.00;0.00;;;;;;;;5069412;27;45626;-63
2023/04/01 10:51:10;;;;;;;;;1.00;0.00;;;;;;;;5065853;27;46208;-62
2023/04/01 10:54:07;;;;;;;;;0.00;0.00;;;;;;;;5075257;27;45607;-65
2023/04/01 10:56:51;;;;;;;;;0.00;0.00;;;;;;;;5043292;28;45429;-64
2023/04/01 10:59:44;;;;;;;;;1.00;0.00;;;;;;;;5074576;27;45528;-63
2023/04/01 11:02:42;;;;;;;;;0.00;0.00;;;;;;;;5074774;27;46808;-63
2023/04/01 11:05:25;;;;;;;;;2.00;0.00;;;;;;;;5041856;28;45466;-63
2023/04/01 11:08:05;;;;;;;;;0.67;0.67;;;;;;;;5061516;27;45438;-63
2023/04/01 11:10:49;;;;;;;;;0.00;0.00;;;;;;;;5068925;28;45573;-63
2023/04/01 11:13:16;;;;;;;;;0.00;0.00;;;;;;;;5072037;27;45587;-62
2023/04/01 11:15:57;;;;;;;;;1.00;1.00;;;;;;;;5078233;27;45411;-62
2023/04/01 11:18:41;;;;;;;;;1.00;1.00;;;;;;;;5069184;27;45770;-61
2023/04/01 11:21:07;;;;;;;;;4.00;4.00;;;;;;;;5067999;27;45603;-62
2023/04/01 11:23:32;;;;;;;;;8.33;8.00;;;;;;;;5070780;27;45503;-60
2023/04/01 11:26:00;;;;;;;;;0.00;0.00;;;;;;;;5075409;27;45558;-62
2023/04/01 11:28:49;;;;;;;;;0.00;0.00;;;;;;;;5074228;28;45454;-63
2023/04/01 11:31:17;;;;;;;;;0.67;0.67;;;;;;;;5063938;27;45634;-63
2023/04/01 11:33:42;;;;;;;;;1.00;0.00;;;;;;;;5075865;28;45602;-62
2023/04/01 11:36:31;;;;;;;;;0.00;0.00;;;;;;;;5075467;27;45785;-65
2023/04/01 11:38:56;;;;;;;;;0.67;0.67;;;;;;;;5062252;27;45399;-65
2023/04/01 11:41:50;;;;;;;;;0.00;0.00;;;;;;;;5073713;27;45644;-65
2023/04/01 11:44:18;;;;;;;;;1.00;0.00;;;;;;;;5031444;28;45630;-63
2023/04/01 11:46:56;;;;;;;;;0.33;0.00;;;;;;;;5069781;27;45490;-63
2023/04/01 11:49:36;;;;;;;;;1.00;1.00;;;;;;;;5072382;27;45470;-65
2023/04/01 11:52:13;;;;;;;;;0.00;0.00;;;;;;;;5075087;28;45678;-64
2023/04/01 11:54:57;;;;;;;;;0.67;0.00;;;;;;;;5068337;27;45793;-64
2023/04/01 11:57:41;;;;;;;;;0.33;0.33;;;;;;;;5075205;27;45500;-64
2023/04/01 12:00:30;;;;;;;;;0.00;0.00;;;;;;;;5075053;27;45511;-63
2023/04/01 12:03:02;;;;;;;;;1.00;1.00;;;;;;;;5068272;28;45892;-64
2023/04/01 12:05:27;;;;;;;;;0.33;0.33;;;;;;;;5069028;27;45489;-65
2023/04/01 12:08:01;;;;;;;;;1.00;0.00;;;;;;;;5073401;28;45435;-64
2023/04/01 12:10:33;;;;;;;;;0.00;0.00;;;;;;;;5075055;27;45492;-64
2023/04/01 12:12:58;;;;;;;;;1.00;1.00;;;;;;;;5074959;27;45411;-65
2023/04/01 12:15:29;;;;;;;;;0.00;0.00;;;;;;;;5065967;27;46326;-65
2023/04/01 12:18:00;;;;;;;;;2.00;0.00;;;;;;;;5073906;27;45448;-64
2023/04/01 12:20:38;;;;;;;;;0.00;0.00;;;;;;;;5074719;27;45500;-64
2023/04/01 12:23:13;;;;;;;;;0.00;0.00;;;;;;;;5074811;27;45533;-65
2023/04/01 12:25:57;;;;;;;;;0.00;0.00;;;;;;;;5074772;28;45614;-65
2023/04/01 12:28:41;;;;;;;;;0.00;0.00;;;;;;;;5074844;27;45610;-65
2023/04/01 12:31:23;;;;;;;;;0.00;0.00;;;;;;;;5070858;28;45723;-65
2023/04/01 12:33:48;;;;;;;;;0.67;0.67;;;;;;;;5074395;27;45496;-64
2023/04/01 12:36:25;;;;;;;;;1.33;1.33;;;;;;;;5074666;28;45518;-65
2023/04/01 12:38:51;;;;;;;;;0.00;0.00;;;;;;;;5074785;28;45546;-65
2023/04/01 12:41:31;;;;;;;;;0.00;0.00;;;;;;;;5074116;28;45488;-65
2023/04/01 12:44:09;;;;;;;;;0.00;0.00;;;;;;;;5071296;28;45497;-64
2023/04/01 12:46:34;;;;;;;;;1.67;0.00;;;;;;;;5069949;27;45626;-64
2023/04/01 12:49:19;;;;;;;;;3.25;1.00;;;;;;;;5074465;28;45385;-64
2023/04/01 12:52:08;;;;;;;;;0.00;0.00;;;;;;;;5074558;28;45727;-64
2023/04/01 12:54:36;;;;;;;;;1.00;1.00;;;;;;;;5043636;28;45495;-63
2023/04/01 12:57:07;;;;;;;;;0.00;0.00;;;;;;;;5073227;27;46494;-64
2023/04/01 12:59:41;;;;;;;;;1.00;0.33;;;;;;;;5062747;27;45570;-64
2023/04/01 13:02:13;;;;;;;;;0.00;0.00;;;;;;;;5073135;27;45615;-64
2023/04/01 13:04:38;;;;;;;;;0.00;0.00;;;;;;;;5074346;27;45557;-63
2023/04/01 13:07:10;;;;;;;;;0.00;0.00;;;;;;;;5073984;27;45548;-64
2023/04/01 13:09:47;;;;;;;;;0.00;0.00;;;;;;;;5074306;27;45520;-64
2023/04/01 13:12:29;;;;;;;;;1.67;0.67;;;;;;;;5074460;28;45495;-64
2023/04/01 13:15:09;;;;;;;;;0.00;0.00;;;;;;;;5064458;27;45496;-64
2023/04/01 13:17:37;;;;;;;;;2.00;0.00;;;;;;;;5073943;27;46287;-64
2023/04/01 13:20:03;;;;;;;;;0.33;0.33;;;;;;;;5073693;27;45529;-64
2023/04/01 13:22:28;;;;;;;;;0.33;0.00;;;;;;;;5073990;27;45552;-64
2023/04/01 13:25:06;;;;;;;;;0.00;0.00;;;;;;;;5074363;27;45433;-64
2023/04/01 13:27:38;;;;;;;;;0.33;0.33;;;;;;;;5071323;27;45452;-64
2023/04/01 13:30:22;;;;;;;;;1.00;0.00;;;;;;;;5063733;27;45448;-64
2023/04/01 13:32:59;;;;;;;;;0.00;0.00;;;;;;;;5071916;27;45468;-65
2023/04/01 13:35:41;;;;;;;;;0.33;0.00;;;;;;;;5071957;28;45578;-64
2023/04/01 13:38:31;;;;;;;;;0.00;0.00;;;;;;;;5057437;27;45618;-64
2023/04/01 13:41:15;;;;;;;;;0.00;0.00;;;;;;;;5066227;27;45492;-65
2023/04/01 13:43:52;;;;;;;;;0.00;0.00;;;;;;;;5059615;28;45496;-65
2023/04/01 13:46:20;;;;;;;;;1.33;0.00;;;;;;;;5074820;27;45494;-67
2023/04/01 13:49:00;;;;;;;;;0.67;0.00;;;;;;;;5077429;27;46377;-63
2023/04/01 13:51:45;;;;;;;;;1.00;0.00;;;;;;;;5067126;27;45402;-64
2023/04/01 13:54:13;;;;;;;;;1.00;0.00;;;;;;;;5077309;27;45457;-63
2023/04/01 13:56:47;;;;;;;;;1.00;1.00;;;;;;;;5077119;27;45747;-63
2023/04/01 13:59:29;;;;;;;;;1.00;1.00;;;;;;;;5074903;27;45473;-63
2023/04/01 14:02:07;;;;;;;;;0.33;0.33;;;;;;;;5073132;27;45530;-65
2023/04/01 14:04:47;;;;;;;;;0.00;0.00;;;;;;;;5076809;27;45545;-65
2023/04/01 14:07:42;;;;;;;;;0.00;0.00;;;;;;;;5062488;27;45585;-64
2023/04/01 14:10:18;;;;;;;;;1.33;0.00;;;;;;;;5057026;27;46007;-65
2023/04/01 14:13:02;;;;;;;;;0.00;0.00;;;;;;;;5069240;27;45764;-65
2023/04/01 14:15:31;;;;;;;;;0.00;0.00;;;;;;;;5070177;27;45459;-65
2023/04/01 14:17:57;;;;;;;;;1.00;0.00;;;;;;;;5075965;27;45626;-65
2023/04/01 14:20:34;;;;;;;;;0.00;0.00;;;;;;;;5071263;27;45383;-65
2023/04/01 14:23:02;;;;;;;;;0.33;0.00;;;;;;;;5075587;27;45440;-65
2023/04/01 14:25:45;;;;;;;;;3.00;1.33;;;;;;;;5070557;27;45530;-65
2023/04/01 14:28:29;;;;;;;;;3.33;1.67;;;;;;;;5075806;27;45513;-65
2023/04/01 14:30:55;;;;;;;;;2.00;2.00;;;;;;;;5080939;27;46104;-65
2023/04/01 14:33:20;;;;;;;;;0.00;0.00;;;;;;;;5075583;27;45397;-65
2023/04/01 14:36:08;;;;;;;;;3.33;1.00;;;;;;;;5070240;27;45885;-65
2023/04/01 14:38:33;;;;;;;;;1.33;1.33;;;;;;;;5063545;28;45533;-66
2023/04/01 14:41:16;;;;;;;;;0.00;0.00;;;;;;;;5076248;27;46148;-65
2023/04/01 14:43:58;;;;;;;;;0.33;0.00;;;;;;;;5063338;28;45536;-66
2023/04/01 14:46:30;;;;;;;;;0.00;0.00;;;;;;;;5073110;27;45680;-66
2023/04/01 14:49:00;;;;;;;;;0.00;0.00;;;;;;;;5075512;27;45548;-65
2023/04/01 14:51:37;;;;;;;;;0.00;0.00;;;;;;;;5079821;27;45639;-65
2023/04/01 14:54:03;;;;;;;;;0.00;0.00;;;;;;;;5075906;27;45496;-65
2023/04/01 14:56:35;;;;;;;;;0.00;0.00;;;;;;;;5064575;27;45501;-61
2023/04/01 14:59:01;;;;;;;;;0.00;0.00;;;;;;;;5068220;28;45531;-58
2023/04/01 15:01:45;;;;;;;;;0.00;0.00;;;;;;;;5070305;27;46947;-59
2023/04/01 15:04:19;;;;;;;;;1.00;0.00;;;;;;;;5072856;27;45511;-59
2023/04/01 15:07:03;;;;;;;;;1.00;1.00;;;;;;;;5075872;27;45572;-59
2023/04/01 15:09:47;;;;;;;;;1.00;1.00;;;;;;;;5075479;27;45687;-59
2023/04/01 15:12:26;;;;;;;;;0.00;0.00;;;;;;;;5075253;27;45487;-59
2023/04/01 15:15:00;;;;;;;;;0.33;0.33;;;;;;;;5075312;27;45452;-59